createdAt,value
2022-09-28T00:01:18.201Z,9.14
2022-09-28T00:03:49.159Z,9.15
2022-09-28T00:06:20.905Z,9.15
2022-09-28T00:08:50.067Z,9.18
2022-09-28T00:11:20.541Z,9.16
2022-09-28T00:13:51.325Z,9.16
2022-09-28T00:16:21.469Z,9.16
2022-09-28T00:18:51.443Z,9.17
2022-09-28T00:21:22.646Z,9.17
2022-09-28T00:24:11.362Z,9.16
2022-09-28T00:26:41.590Z,9.16
2022-09-28T00:29:17.112Z,9.15
2022-09-28T00:31:45.804Z,9.15
2022-09-28T00:34:15.850Z,9.13
2022-09-28T00:36:46.114Z,9.14
2022-09-28T00:39:16.266Z,9.13
2022-09-28T00:41:45.617Z,9.12
2022-09-28T00:44:50.039Z,9.12
2022-09-28T00:47:39.131Z,9.09
2022-09-28T00:50:15.488Z,9.09
2022-09-28T00:52:50.026Z,9.09
2022-09-28T00:55:21.831Z,9.09
2022-09-28T00:57:55.158Z,9.08
2022-09-28T01:00:23.847Z,9.07
2022-09-28T01:02:52.729Z,9.06
2022-09-28T01:05:25.205Z,9.06
2022-09-28T01:07:55.409Z,9.05
2022-09-28T01:10:23.906Z,9.06
2022-09-28T01:12:52.179Z,9.06
2022-09-28T01:15:22.749Z,9.06
2022-09-28T01:18:01.591Z,9.05
2022-09-28T01:20:55.784Z,9.04
2022-09-28T01:24:11.981Z,9.03
2022-09-28T01:26:51.899Z,9.03
2022-09-28T01:29:58.547Z,9.03
2022-09-28T01:32:35.798Z,9.04
2022-09-28T01:35:08.933Z,9.04
2022-09-28T01:37:46.433Z,9.04
2022-09-28T01:40:16.791Z,9.01
2022-09-28T01:42:54.369Z,8.97
2022-09-28T01:45:27.336Z,8.96
2022-09-28T01:48:01.022Z,8.95
2022-09-28T01:50:34.945Z,8.94
2022-09-28T01:53:09.239Z,8.94
2022-09-28T01:55:42.714Z,8.93
2022-09-28T01:58:16.011Z,8.92
2022-09-28T02:00:50.181Z,8.92
2022-09-28T02:03:22.970Z,8.92
2022-09-28T02:06:00.910Z,8.92
2022-09-28T02:08:34.492Z,8.90
2022-09-28T02:11:07.289Z,8.89
2022-09-28T02:13:40.916Z,8.89
2022-09-28T02:16:17.318Z,8.87
2022-09-28T02:18:47.002Z,8.86
2022-09-28T02:21:23.906Z,8.87
2022-09-28T02:23:57.598Z,8.87
2022-09-28T02:26:32.508Z,8.85
2022-09-28T02:29:02.261Z,8.86
2022-09-28T02:31:31.698Z,8.83
2022-09-28T02:34:00.314Z,8.86
2022-09-28T02:36:29.962Z,8.84
2022-09-28T02:39:02.187Z,8.85
2022-09-28T02:41:48.538Z,8.85
2022-09-28T02:44:35.908Z,8.85
2022-09-28T02:47:11.498Z,8.84
2022-09-28T02:49:50.327Z,8.86
2022-09-28T02:52:37.774Z,8.87
2022-09-28T02:55:21.224Z,8.89
2022-09-28T02:58:04.605Z,8.89
2022-09-28T03:00:42.034Z,8.90
2022-09-28T03:03:19.024Z,8.90
2022-09-28T03:05:54.924Z,8.89
2022-09-28T03:08:27.321Z,8.90
2022-09-28T03:10:59.786Z,8.89
2022-09-28T03:13:29.550Z,8.89
2022-09-28T03:16:10.296Z,8.90
2022-09-28T03:18:39.142Z,8.91
2022-09-28T03:21:08.070Z,8.92
2022-09-28T03:23:36.339Z,8.93
2022-09-28T03:26:04.853Z,8.93
2022-09-28T03:28:35.645Z,8.92
2022-09-28T03:31:04.587Z,8.91
2022-09-28T03:33:34.332Z,8.92
2022-09-28T03:36:02.814Z,8.92
2022-09-28T03:38:31.656Z,8.91
2022-09-28T03:41:01.783Z,8.89
2022-09-28T03:43:36.302Z,8.88
2022-09-28T03:46:05.521Z,8.87
2022-09-28T03:48:41.783Z,8.87
2022-09-28T03:51:13.085Z,8.85
2022-09-28T03:53:41.615Z,8.83
2022-09-28T03:56:13.547Z,8.81
2022-09-28T03:58:43.271Z,8.81
2022-09-28T04:01:17.724Z,8.82
2022-09-28T04:03:55.006Z,8.83
2022-09-28T04:06:24.255Z,8.82
2022-09-28T04:08:52.888Z,8.81
2022-09-28T04:11:21.329Z,8.81
2022-09-28T04:13:50.460Z,8.81
2022-09-28T04:16:19.381Z,8.79
2022-09-28T04:19:06.752Z,8.79
2022-09-28T04:21:51.847Z,8.79
2022-09-28T04:24:21.361Z,8.79
2022-09-28T04:26:49.667Z,8.79
2022-09-28T04:29:18.976Z,8.79
2022-09-28T04:32:07.053Z,8.79
2022-09-28T04:34:43.752Z,8.81
2022-09-28T04:37:12.675Z,8.79
2022-09-28T04:39:45.008Z,8.78
2022-09-28T04:42:14.804Z,8.78
2022-09-28T04:44:43.081Z,8.80
2022-09-28T04:47:11.457Z,8.82
2022-09-28T04:50:19.294Z,8.82
2022-09-28T04:53:06.061Z,8.82
2022-09-28T04:55:34.406Z,8.82
2022-09-28T04:58:05.278Z,8.81
2022-09-28T05:00:35.510Z,8.83
2022-09-28T05:03:23.605Z,8.82
2022-09-28T05:06:17.070Z,8.84
2022-09-28T05:08:47.739Z,8.84
2022-09-28T05:11:18.288Z,8.85
2022-09-28T05:13:48.418Z,8.85
2022-09-28T05:16:18.173Z,8.85
2022-09-28T05:19:06.153Z,8.88
2022-09-28T05:21:35.903Z,8.89
2022-09-28T05:24:07.423Z,8.89
2022-09-28T05:26:37.573Z,8.88
2022-09-28T05:29:07.403Z,8.88
2022-09-28T05:31:54.077Z,8.87
2022-09-28T05:34:42.686Z,8.87
2022-09-28T05:37:17.145Z,8.88
2022-09-28T05:39:46.725Z,8.88
2022-09-28T05:42:15.049Z,8.90
2022-09-28T05:44:44.438Z,8.89
2022-09-28T05:47:13.615Z,8.91
2022-09-28T05:49:42.461Z,8.91
2022-09-28T05:52:10.982Z,8.92
2022-09-28T05:54:42.357Z,8.92
2022-09-28T05:57:10.861Z,8.94
2022-09-28T05:59:39.098Z,8.95
2022-09-28T06:02:07.961Z,8.93
2022-09-28T06:04:36.293Z,8.94
2022-09-28T06:07:04.564Z,8.95
2022-09-28T06:09:32.892Z,8.95
2022-09-28T06:12:21.513Z,8.95
2022-09-28T06:14:52.141Z,8.95
2022-09-28T06:17:20.437Z,8.95
2022-09-28T06:19:55.375Z,8.94
2022-09-28T06:22:53.197Z,8.94
2022-09-28T06:25:22.595Z,8.93
2022-09-28T06:27:59.733Z,8.92
2022-09-28T06:30:29.755Z,8.92
2022-09-28T06:33:00.326Z,8.93
2022-09-28T06:35:31.038Z,8.91
2022-09-28T06:38:00.481Z,8.89
2022-09-28T06:40:30.110Z,8.88
2022-09-28T06:43:01.833Z,8.87
2022-09-28T06:45:52.486Z,8.85
2022-09-28T06:48:54.501Z,8.87
2022-09-28T06:51:42.708Z,8.88
2022-09-28T06:54:20.155Z,8.88
2022-09-28T06:56:51.930Z,8.89
2022-09-28T06:59:22.452Z,8.91
2022-09-28T07:01:50.898Z,8.91
2022-09-28T07:04:42.673Z,8.91
2022-09-28T07:07:28.123Z,8.91
2022-09-28T07:10:03.234Z,8.92
2022-09-28T07:12:47.724Z,8.90
2022-09-28T07:15:27.265Z,8.90
2022-09-28T07:18:02.520Z,8.90
2022-09-28T07:20:40.024Z,8.91
2022-09-28T07:23:19.681Z,8.92
2022-09-28T07:26:09.059Z,8.93
2022-09-28T07:29:10.903Z,8.91
2022-09-28T07:31:46.179Z,8.94
2022-09-28T07:34:39.884Z,8.93
2022-09-28T07:37:13.821Z,8.92
2022-09-28T07:40:00.138Z,8.94
2022-09-28T07:42:30.855Z,8.95
2022-09-28T07:44:59.313Z,8.93
2022-09-28T07:47:34.673Z,8.93
2022-09-28T07:50:30.086Z,8.96
2022-09-28T07:53:17.073Z,8.96
2022-09-28T07:56:10.285Z,8.97
2022-09-28T07:58:44.780Z,8.98
2022-09-28T08:01:45.476Z,9.02
2022-09-28T08:04:17.018Z,9.04
2022-09-28T08:06:48.271Z,9.08
2022-09-28T08:09:16.832Z,9.12
2022-09-28T08:12:05.029Z,9.15
2022-09-28T08:14:47.009Z,9.21
2022-09-28T08:17:38.858Z,9.24
2022-09-28T08:20:28.559Z,9.27
2022-09-28T08:22:56.859Z,9.31
2022-09-28T08:25:25.365Z,9.35
2022-09-28T08:27:56.208Z,9.39
2022-09-28T08:30:25.177Z,9.43
2022-09-28T08:33:03.801Z,9.50
2022-09-28T08:35:46.759Z,9.56
2022-09-28T08:38:18.823Z,9.58
2022-09-28T08:41:16.338Z,9.63
2022-09-28T08:44:12.485Z,9.66
2022-09-28T08:47:02.306Z,9.70
2022-09-28T08:49:48.059Z,9.74
2022-09-28T08:52:38.087Z,9.78
2022-09-28T08:55:16.338Z,9.82
2022-09-28T08:57:53.587Z,9.85
2022-09-28T09:00:30.685Z,9.88
2022-09-28T09:02:59.296Z,9.91
2022-09-28T09:05:47.999Z,9.93
2022-09-28T09:08:34.041Z,9.97
2022-09-28T09:11:13.011Z,10.01
2022-09-28T09:14:10.421Z,10.08
2022-09-28T09:16:51.224Z,10.14
2022-09-28T09:19:46.643Z,10.20
2022-09-28T09:22:58.559Z,10.24
2022-09-28T09:25:38.425Z,10.25
2022-09-28T09:28:43.622Z,10.26
2022-09-28T09:31:27.117Z,10.26
2022-09-28T09:34:13.090Z,10.27
2022-09-28T09:37:04.838Z,10.28
2022-09-28T09:40:34.659Z,10.26
2022-09-28T09:43:59.904Z,10.27
2022-09-28T09:46:54.792Z,10.28
2022-09-28T09:49:44.523Z,10.29
2022-09-28T09:52:19.923Z,10.33
2022-09-28T09:54:55.199Z,10.32
2022-09-28T09:57:46.685Z,10.31
2022-09-28T10:00:33.106Z,10.31
2022-09-28T10:03:22.367Z,10.29
2022-09-28T10:05:57.368Z,10.29
2022-09-28T10:08:26.637Z,10.31
2022-09-28T10:11:07.586Z,10.31
2022-09-28T10:13:41.076Z,10.33
2022-09-28T10:16:30.658Z,10.35
2022-09-28T10:19:01.948Z,10.39
2022-09-28T10:22:02.093Z,10.43
2022-09-28T10:24:35.255Z,10.50
2022-09-28T10:27:09.433Z,10.53
2022-09-28T10:29:50.713Z,10.57
2022-09-28T10:32:21.474Z,10.58
2022-09-28T10:34:51.309Z,10.62
2022-09-28T10:37:24.247Z,10.64
2022-09-28T10:40:34.108Z,10.69
2022-09-28T10:43:03.967Z,10.73
2022-09-28T10:45:37.156Z,10.80
2022-09-28T10:48:15.070Z,10.84
2022-09-28T10:50:44.482Z,10.89
2022-09-28T10:53:20.476Z,10.95
2022-09-28T10:56:06.028Z,11.00
2022-09-28T10:58:39.705Z,11.08
2022-09-28T11:01:16.831Z,11.16
2022-09-28T11:03:56.444Z,11.22
2022-09-28T11:06:27.305Z,11.27
2022-09-28T11:08:58.814Z,11.29
2022-09-28T11:11:29.371Z,11.32
2022-09-28T11:14:04.356Z,11.32
2022-09-28T11:16:39.161Z,11.31
2022-09-28T11:19:28.546Z,11.31
2022-09-28T11:21:56.907Z,11.31
2022-09-28T11:24:33.925Z,11.29
2022-09-28T11:27:05.166Z,11.28
2022-09-28T11:29:38.534Z,11.27
2022-09-28T11:32:40.422Z,11.29
2022-09-28T11:35:24.635Z,11.34
2022-09-28T11:38:07.258Z,11.39
2022-09-28T11:41:02.050Z,11.45
2022-09-28T11:43:50.269Z,11.52
2022-09-28T11:46:28.454Z,11.58
2022-09-28T11:49:11.952Z,11.63
2022-09-28T11:51:44.619Z,11.68
2022-09-28T11:54:21.060Z,11.74
2022-09-28T11:56:51.472Z,11.76
2022-09-28T11:59:27.490Z,11.79
2022-09-28T12:01:59.277Z,11.85
2022-09-28T12:05:20.843Z,11.89
2022-09-28T12:07:55.074Z,11.90
2022-09-28T12:10:57.031Z,11.92
2022-09-28T12:13:48.686Z,11.93
2022-09-28T12:19:18.966Z,11.95
2022-09-28T12:21:52.186Z,11.99
2022-09-28T12:24:25.981Z,12.07
2022-09-28T12:26:59.241Z,12.17
2022-09-28T12:29:33.194Z,12.25
2022-09-28T12:32:10.794Z,12.31
2022-09-28T12:34:41.733Z,12.36
2022-09-28T12:37:30.538Z,12.40
2022-09-28T12:40:20.925Z,12.39
2022-09-28T12:43:26.329Z,12.38
2022-09-28T12:46:12.027Z,12.35
2022-09-28T12:49:24.391Z,12.35
2022-09-28T12:51:49.788Z,12.33
2022-09-28T12:54:35.001Z,12.32
2022-09-28T12:57:15.492Z,12.29
2022-09-28T13:00:01.700Z,12.30
2022-09-28T13:02:58.482Z,12.29
2022-09-28T13:05:56.760Z,12.31
2022-09-28T13:08:35.622Z,12.35
2022-09-28T13:11:16.530Z,12.45
2022-09-28T13:13:52.971Z,12.58
2022-09-28T13:16:28.134Z,12.72
2022-09-28T13:19:03.132Z,12.89
2022-09-28T13:21:42.006Z,13.02
2022-09-28T13:24:31.554Z,13.15
2022-09-28T13:27:08.409Z,13.41
2022-09-28T13:32:12.454Z,13.97
2022-09-28T13:34:41.008Z,14.18
2022-09-28T13:37:21.664Z,14.32
2022-09-28T13:39:52.898Z,14.41
2022-09-28T13:42:41.725Z,14.49
2022-09-28T13:45:32.274Z,14.61
2022-09-28T13:48:20.551Z,14.64
2022-09-28T13:51:25.727Z,14.74
2022-09-28T13:54:17.165Z,14.94
2022-09-28T13:56:52.454Z,15.09
2022-09-28T13:59:27.149Z,15.25
2022-09-28T14:02:06.860Z,15.45
2022-09-28T14:04:57.338Z,15.63
2022-09-28T14:10:20.424Z,15.62
2022-09-28T14:12:51.312Z,15.54
2022-09-28T14:15:45.026Z,15.44
2022-09-28T14:18:24.406Z,15.27
2022-09-28T14:21:14.427Z,15.12
2022-09-28T14:24:14.735Z,14.94
2022-09-28T14:27:07.598Z,14.85
2022-09-28T14:29:38.212Z,14.80
2022-09-28T14:32:24.422Z,14.77
2022-09-28T14:35:03.630Z,14.71
2022-09-28T14:37:51.902Z,14.62
2022-09-28T14:40:40.670Z,14.52
2022-09-28T14:43:36.640Z,14.41
2022-09-28T14:46:31.120Z,14.33
2022-09-28T14:49:03.557Z,14.28
2022-09-28T14:52:07.652Z,14.24
2022-09-28T14:54:48.987Z,14.16
2022-09-28T14:57:20.571Z,14.06
2022-09-28T14:59:49.468Z,13.96
2022-09-28T15:02:32.925Z,13.86
2022-09-28T15:05:14.902Z,13.75
2022-09-28T15:07:47.442Z,13.67
2022-09-28T15:10:27.673Z,13.61
2022-09-28T15:12:57.603Z,13.54
2022-09-28T15:15:30.911Z,13.47
2022-09-28T15:18:13.772Z,13.37
2022-09-28T15:20:47.709Z,13.30
2022-09-28T15:23:28.350Z,13.22
2022-09-28T15:25:57.323Z,13.16
2022-09-28T15:28:25.655Z,13.08
2022-09-28T15:31:02.514Z,12.97
2022-09-28T15:33:49.916Z,12.88
2022-09-28T15:36:23.062Z,12.78
2022-09-28T15:38:58.142Z,12.69
2022-09-28T15:41:27.358Z,12.60
2022-09-28T15:44:23.439Z,12.52
2022-09-28T15:47:04.302Z,12.48
2022-09-28T15:49:39.248Z,12.41
2022-09-28T15:52:23.018Z,12.35
2022-09-28T15:54:51.722Z,12.30
2022-09-28T15:57:44.097Z,12.20
2022-09-28T16:00:26.353Z,12.09
2022-09-28T16:03:00.330Z,12.01
2022-09-28T16:05:42.439Z,11.97
2022-09-28T16:08:21.359Z,11.89
2022-09-28T16:11:00.729Z,11.83
2022-09-28T16:13:29.214Z,11.77
2022-09-28T16:15:59.621Z,11.70
2022-09-28T16:18:30.151Z,11.63
2022-09-28T16:21:22.375Z,11.56
2022-09-28T16:23:55.613Z,11.50
2022-09-28T16:26:32.338Z,11.42
2022-09-28T16:29:02.006Z,11.35
2022-09-28T16:31:33.619Z,11.30
2022-09-28T16:34:11.861Z,11.23
2022-09-28T16:36:45.205Z,11.14
2022-09-28T16:39:16.274Z,11.10
2022-09-28T16:41:49.496Z,11.04
2022-09-28T16:44:25.756Z,10.99
2022-09-28T16:46:56.830Z,10.95
2022-09-28T16:49:26.805Z,10.93
2022-09-28T16:51:55.263Z,10.91
2022-09-28T16:54:58.297Z,10.88
2022-09-28T16:57:26.633Z,10.85
2022-09-28T16:59:54.957Z,10.83
2022-09-28T17:05:15.778Z,10.76
2022-09-28T17:07:45.445Z,10.70
2022-09-28T17:10:19.198Z,10.67
2022-09-28T17:12:47.630Z,10.65
2022-09-28T17:15:19.583Z,10.62
2022-09-28T17:17:49.246Z,10.63
2022-09-28T17:20:22.334Z,10.62
2022-09-28T17:22:50.909Z,10.62
2022-09-28T17:25:21.130Z,10.62
2022-09-28T17:27:50.397Z,10.63
2022-09-28T17:30:23.505Z,10.63
2022-09-28T17:32:53.414Z,10.63
2022-09-28T17:35:24.596Z,10.64
2022-09-28T17:37:54.209Z,10.65
2022-09-28T17:40:28.117Z,10.66
2022-09-28T17:42:57.819Z,10.65
2022-09-28T17:45:28.535Z,10.64
2022-09-28T17:48:00.668Z,10.63
2022-09-28T17:50:32.375Z,10.62
2022-09-28T17:53:05.786Z,10.61
2022-09-28T17:55:37.019Z,10.60
2022-09-28T17:58:15.999Z,10.58
2022-09-28T18:00:45.035Z,10.56
2022-09-28T18:03:16.457Z,10.52
2022-09-28T18:05:45.666Z,10.50
2022-09-28T18:08:16.593Z,10.47
2022-09-28T18:10:46.842Z,10.42
2022-09-28T18:13:15.634Z,10.39
2022-09-28T18:15:44.473Z,10.36
2022-09-28T18:18:12.936Z,10.34
2022-09-28T18:20:41.934Z,10.31
2022-09-28T18:23:10.214Z,10.30
2022-09-28T18:25:40.723Z,10.28
2022-09-28T18:28:10.940Z,10.26
2022-09-28T18:30:41.217Z,10.24
2022-09-28T18:33:10.202Z,10.20
2022-09-28T18:35:38.572Z,10.19
2022-09-28T18:38:07.493Z,10.17
2022-09-28T18:40:36.979Z,10.17
2022-09-28T18:43:05.326Z,10.15
2022-09-28T18:45:35.719Z,10.11
2022-09-28T18:48:04.146Z,10.10
2022-09-28T18:50:32.416Z,10.06
2022-09-28T18:53:11.411Z,10.04
2022-09-28T18:55:40.885Z,10.01
2022-09-28T18:58:10.533Z,9.99
2022-09-28T19:00:42.393Z,9.94
2022-09-28T19:03:14.285Z,9.92
2022-09-28T19:05:43.067Z,9.89
2022-09-28T19:08:11.705Z,9.85
2022-09-28T19:10:39.974Z,9.83
2022-09-28T19:13:08.255Z,9.78
2022-09-28T19:15:36.681Z,9.75
2022-09-28T19:18:07.472Z,9.73
2022-09-28T19:20:35.863Z,9.69
2022-09-28T19:23:04.224Z,9.67
2022-09-28T19:25:32.761Z,9.64
2022-09-28T19:28:01.213Z,9.60
2022-09-28T19:30:29.484Z,9.56
2022-09-28T19:32:57.883Z,9.55
2022-09-28T19:35:27.505Z,9.52
2022-09-28T19:37:56.073Z,9.47
2022-09-28T19:40:24.443Z,9.45
2022-09-28T19:42:52.890Z,9.42
2022-09-28T19:45:21.218Z,9.39
2022-09-28T19:47:50.898Z,9.36
2022-09-28T19:50:19.431Z,9.32
2022-09-28T19:52:49.282Z,9.29
2022-09-28T19:55:18.870Z,9.26
2022-09-28T19:57:47.935Z,9.22
2022-09-28T20:00:16.752Z,9.20
2022-09-28T20:02:45.055Z,9.18
2022-09-28T20:05:13.353Z,9.16
2022-09-28T20:07:41.658Z,9.14
2022-09-28T20:10:12.188Z,9.13
2022-09-28T20:12:41.050Z,9.12
2022-09-28T20:15:10.581Z,9.08
2022-09-28T20:17:39.002Z,9.04
2022-09-28T20:20:07.895Z,9.02
2022-09-28T20:22:36.998Z,9.01
2022-09-28T20:25:05.674Z,8.97
2022-09-28T20:27:35.285Z,8.95
2022-09-28T20:30:04.527Z,8.92
2022-09-28T20:32:33.068Z,8.90
2022-09-28T20:35:01.487Z,8.86
2022-09-28T20:37:30.866Z,8.84
2022-09-28T20:40:00.926Z,8.81
2022-09-28T20:42:31.827Z,8.78
2022-09-28T20:45:01.444Z,8.76
2022-09-28T20:47:29.730Z,8.74
2022-09-28T20:49:58.273Z,8.72
2022-09-28T20:52:26.538Z,8.70
2022-09-28T20:54:54.836Z,8.67
2022-09-28T20:57:23.191Z,8.66
2022-09-28T20:59:54.759Z,8.62
2022-09-28T21:02:25.133Z,8.58
2022-09-28T21:04:54.040Z,8.56
2022-09-28T21:07:22.393Z,8.54
2022-09-28T21:09:50.703Z,8.51
2022-09-28T21:12:19.170Z,8.49
2022-09-28T21:14:47.426Z,8.48
2022-09-28T21:17:15.838Z,8.43
2022-09-28T21:19:45.552Z,8.40
2022-09-28T21:22:13.988Z,8.39
2022-09-28T21:24:42.246Z,8.37
2022-09-28T21:27:10.520Z,8.36
2022-09-28T21:29:38.807Z,8.34
2022-09-28T21:32:08.127Z,8.32
2022-09-28T21:34:36.709Z,8.31
2022-09-28T21:37:06.646Z,8.29
2022-09-28T21:39:34.890Z,8.27
2022-09-28T21:42:03.192Z,8.26
2022-09-28T21:44:31.451Z,8.22
2022-09-28T21:46:59.758Z,8.21
2022-09-28T21:49:28.054Z,8.20
2022-09-28T21:51:56.359Z,8.18
2022-09-28T21:54:25.969Z,8.17
2022-09-28T21:56:54.278Z,8.16
2022-09-28T21:59:22.577Z,8.14
2022-09-28T22:01:50.924Z,8.11
2022-09-28T22:04:19.325Z,8.10
2022-09-28T22:06:47.749Z,8.07
2022-09-28T22:09:16.022Z,8.04
2022-09-28T22:11:45.680Z,8.03
2022-09-28T22:14:14.180Z,8.00
2022-09-28T22:16:43.252Z,7.97
2022-09-28T22:19:11.671Z,7.94
2022-09-28T22:21:40.054Z,7.93
2022-09-28T22:24:08.666Z,7.90
2022-09-28T22:26:39.357Z,7.88
2022-09-28T22:29:10.269Z,7.86
2022-09-28T22:31:40.686Z,7.86
2022-09-28T22:34:10.274Z,7.85
2022-09-28T22:36:38.989Z,7.83
2022-09-28T22:39:07.358Z,7.81
2022-09-28T22:41:35.811Z,7.81
2022-09-28T22:44:04.096Z,7.80
2022-09-28T22:46:33.885Z,7.77
2022-09-28T22:49:02.323Z,7.76
2022-09-28T22:51:31.789Z,7.74
2022-09-28T22:54:00.330Z,7.74
2022-09-28T22:56:29.124Z,7.72
2022-09-28T22:58:57.847Z,7.72
2022-09-28T23:01:28.147Z,7.70
2022-09-28T23:03:59.316Z,7.69
2022-09-28T23:06:30.658Z,7.66
2022-09-28T23:08:59.108Z,7.66
2022-09-28T23:11:27.899Z,7.64
2022-09-28T23:13:57.841Z,7.65
2022-09-28T23:16:27.516Z,7.64
2022-09-28T23:18:58.143Z,7.65
2022-09-28T23:21:28.289Z,7.65
2022-09-28T23:23:58.549Z,7.65
2022-09-28T23:26:29.049Z,7.66
2022-09-28T23:28:58.278Z,7.68
2022-09-28T23:31:28.453Z,7.69
2022-09-28T23:34:02.819Z,7.70
2022-09-28T23:36:31.622Z,7.71
2022-09-28T23:39:00.042Z,7.71
2022-09-28T23:41:28.760Z,7.72
2022-09-28T23:43:57.580Z,7.72
2022-09-28T23:46:25.973Z,7.73
2022-09-28T23:48:54.459Z,7.75
2022-09-28T23:51:24.135Z,7.74
2022-09-28T23:53:52.407Z,7.73
2022-09-28T23:56:21.238Z,7.74
2022-09-28T23:58:49.553Z,7.74
